Accueil
METAR-TAF:

METAR-TAF

Aéroports :

Monte Cimone, Italie

latitude: 44-12N, longitude: 010-42E, altitude: 2165 m

Observation

Le bulletin a été fait il y a 1 heure et 25 minutes, à 02:55 UTC
Vent 7 kt de sud-est
Température -2°C
Humidité 74%
Pression 1018 hPa

METAR: LIVC 300255Z AUTO 13007KT //// M02/M06 Q1018

Heure: 05:20 (04:20 UTC)


TAF: absent

Observations et prévisions météorologiques de plus de 4000 aéroports (messages METAR et TAF).

Les stations disponibles sont représentées par des disques jaunes et rouges sur la carte.

Passer la souris dessus pour voir le nom de la station.

Cliquer dessus pour voir les observations et prévisions météorologiques.

Pour changer de carte: cliquez sur les boutons verts avec une croix noire pour zoomer, sur le bouton vert avec un tiret pour effectuer un zoom arrière, ou sur les flèches vertes pour les cartes adjacentes.


METAR-TAF: